sensor_id;sensor_type;location;lat;lon;timestamp;pressure;altitude;pressure_sealevel;temperature;humidity
82148;BME280;71718;50.480;12.110;2024-03-08T00:01:31;98045.41;;;-1.97;74.35
82148;BME280;71718;50.480;12.110;2024-03-08T00:03:57;98052.94;;;-1.95;74.22
82148;BME280;71718;50.480;12.110;2024-03-08T00:06:24;98049.31;;;-1.93;74.13
82148;BME280;71718;50.480;12.110;2024-03-08T00:08:50;98041.84;;;-1.94;74.13
82148;BME280;71718;50.480;12.110;2024-03-08T00:11:16;98050.84;;;-2.01;73.37
82148;BME280;71718;50.480;12.110;2024-03-08T00:13:43;98045.06;;;-2.03;73.99
82148;BME280;71718;50.480;12.110;2024-03-08T00:16:09;98047.75;;;-2.05;73.90
82148;BME280;71718;50.480;12.110;2024-03-08T00:18:36;98048.66;;;-2.06;74.07
82148;BME280;71718;50.480;12.110;2024-03-08T00:21:02;98037.56;;;-2.05;74.22
82148;BME280;71718;50.480;12.110;2024-03-08T00:23:29;98033.50;;;-2.07;74.17
82148;BME280;71718;50.480;12.110;2024-03-08T00:25:55;98040.56;;;-2.11;74.10
82148;BME280;71718;50.480;12.110;2024-03-08T00:28:22;98031.56;;;-2.15;73.98
82148;BME280;71718;50.480;12.110;2024-03-08T00:30:48;98031.56;;;-2.15;73.99
82148;BME280;71718;50.480;12.110;2024-03-08T00:33:14;98025.75;;;-2.17;74.01
82148;BME280;71718;50.480;12.110;2024-03-08T00:35:41;98026.00;;;-2.20;73.87
82148;BME280;71718;50.480;12.110;2024-03-08T00:38:07;98031.56;;;-2.26;73.94
82148;BME280;71718;50.480;12.110;2024-03-08T00:40:34;98026.69;;;-2.29;73.89
82148;BME280;71718;50.480;12.110;2024-03-08T00:43:00;98025.19;;;-2.32;74.11
82148;BME280;71718;50.480;12.110;2024-03-08T00:45:26;98026.13;;;-2.33;74.16
82148;BME280;71718;50.480;12.110;2024-03-08T00:47:53;98025.31;;;-2.33;73.96
82148;BME280;71718;50.480;12.110;2024-03-08T00:50:19;98023.69;;;-2.34;73.66
82148;BME280;71718;50.480;12.110;2024-03-08T00:52:46;98014.91;;;-2.41;73.89
82148;BME280;71718;50.480;12.110;2024-03-08T00:55:12;98012.47;;;-2.43;74.11
82148;BME280;71718;50.480;12.110;2024-03-08T00:57:38;98011.75;;;-2.45;73.97
82148;BME280;71718;50.480;12.110;2024-03-08T01:00:06;98012.13;;;-2.49;73.83
82148;BME280;71718;50.480;12.110;2024-03-08T01:02:33;98010.03;;;-2.55;74.08
82148;BME280;71718;50.480;12.110;2024-03-08T01:04:59;98011.88;;;-2.57;74.05
82148;BME280;71718;50.480;12.110;2024-03-08T01:07:26;98015.59;;;-2.61;74.18
82148;BME280;71718;50.480;12.110;2024-03-08T01:09:52;98009.69;;;-2.62;74.34
82148;BME280;71718;50.480;12.110;2024-03-08T01:12:18;98011.28;;;-2.61;74.18
82148;BME280;71718;50.480;12.110;2024-03-08T01:14:45;98009.09;;;-2.66;74.35
82148;BME280;71718;50.480;12.110;2024-03-08T01:17:11;98004.16;;;-2.67;74.02
82148;BME280;71718;50.480;12.110;2024-03-08T01:19:38;98006.09;;;-2.71;74.27
82148;BME280;71718;50.480;12.110;2024-03-08T01:22:04;98002.06;;;-2.73;74.18
82148;BME280;71718;50.480;12.110;2024-03-08T01:24:31;97999.72;;;-2.76;74.11
82148;BME280;71718;50.480;12.110;2024-03-08T01:26:57;97995.69;;;-2.79;74.24
82148;BME280;71718;50.480;12.110;2024-03-08T01:29:23;97985.63;;;-2.80;74.22
82148;BME280;71718;50.480;12.110;2024-03-08T01:31:50;97987.59;;;-2.84;73.96
82148;BME280;71718;50.480;12.110;2024-03-08T01:34:16;97985.16;;;-2.85;74.30
82148;BME280;71718;50.480;12.110;2024-03-08T01:36:43;97984.13;;;-2.83;74.24
82148;BME280;71718;50.480;12.110;2024-03-08T01:39:09;97976.72;;;-2.86;73.96
82148;BME280;71718;50.480;12.110;2024-03-08T01:41:36;97971.53;;;-2.84;74.21
82148;BME280;71718;50.480;12.110;2024-03-08T01:44:03;97971.88;;;-2.89;73.73
82148;BME280;71718;50.480;12.110;2024-03-08T01:46:30;97974.88;;;-2.95;74.09
82148;BME280;71718;50.480;12.110;2024-03-08T01:48:57;97965.84;;;-2.99;74.23
82148;BME280;71718;50.480;12.110;2024-03-08T01:51:24;97971.50;;;-2.95;74.55
82148;BME280;71718;50.480;12.110;2024-03-08T01:53:50;97960.53;;;-2.96;74.24
82148;BME280;71718;50.480;12.110;2024-03-08T01:56:17;97961.47;;;-2.97;73.88
82148;BME280;71718;50.480;12.110;2024-03-08T01:58:43;97954.78;;;-2.98;73.75
82148;BME280;71718;50.480;12.110;2024-03-08T02:01:13;97947.25;;;-2.99;73.67
82148;BME280;71718;50.480;12.110;2024-03-08T02:03:40;97945.06;;;-3.04;73.61
82148;BME280;71718;50.480;12.110;2024-03-08T02:06:06;97947.81;;;-3.07;73.75
82148;BME280;71718;50.480;12.110;2024-03-08T02:08:34;97943.53;;;-3.07;73.85
82148;BME280;71718;50.480;12.110;2024-03-08T02:11:01;97947.13;;;-3.09;73.97
82148;BME280;71718;50.480;12.110;2024-03-08T02:13:27;97948.59;;;-3.18;73.75
82148;BME280;71718;50.480;12.110;2024-03-08T02:15:55;97942.03;;;-3.20;73.66
82148;BME280;71718;50.480;12.110;2024-03-08T02:18:22;97935.56;;;-3.24;73.84
82148;BME280;71718;50.480;12.110;2024-03-08T02:20:50;97932.88;;;-3.23;74.10
82148;BME280;71718;50.480;12.110;2024-03-08T02:23:17;97929.78;;;-3.26;74.07
82148;BME280;71718;50.480;12.110;2024-03-08T02:25:44;97932.41;;;-3.28;74.26
82148;BME280;71718;50.480;12.110;2024-03-08T02:28:11;97924.81;;;-3.28;73.93
82148;BME280;71718;50.480;12.110;2024-03-08T02:30:38;97932.66;;;-3.31;73.99
82148;BME280;71718;50.480;12.110;2024-03-08T02:33:05;97929.31;;;-3.31;73.88
82148;BME280;71718;50.480;12.110;2024-03-08T02:35:32;97926.19;;;-3.35;74.02
82148;BME280;71718;50.480;12.110;2024-03-08T02:37:59;97928.25;;;-3.40;73.70
82148;BME280;71718;50.480;12.110;2024-03-08T02:40:26;97921.88;;;-3.45;73.74
82148;BME280;71718;50.480;12.110;2024-03-08T02:42:52;97929.13;;;-3.52;74.22
82148;BME280;71718;50.480;12.110;2024-03-08T02:45:19;97920.13;;;-3.56;74.39
82148;BME280;71718;50.480;12.110;2024-03-08T02:47:45;97924.59;;;-3.60;74.48
82148;BME280;71718;50.480;12.110;2024-03-08T02:50:12;97934.75;;;-3.60;74.31
82148;BME280;71718;50.480;12.110;2024-03-08T02:52:38;97929.09;;;-3.63;74.29
82148;BME280;71718;50.480;12.110;2024-03-08T02:55:05;97935.78;;;-3.62;74.63
82148;BME280;71718;50.480;12.110;2024-03-08T02:57:31;97932.34;;;-3.61;74.48
82148;BME280;71718;50.480;12.110;2024-03-08T02:59:58;97922.06;;;-3.60;74.24
82148;BME280;71718;50.480;12.110;2024-03-08T03:02:24;97917.91;;;-3.61;74.19
82148;BME280;71718;50.480;12.110;2024-03-08T03:04:50;97923.69;;;-3.59;73.99
82148;BME280;71718;50.480;12.110;2024-03-08T03:07:17;97914.66;;;-3.63;73.83
82148;BME280;71718;50.480;12.110;2024-03-08T03:09:43;97924.34;;;-3.68;73.94
82148;BME280;71718;50.480;12.110;2024-03-08T03:12:09;97913.47;;;-3.70;74.31
82148;BME280;71718;50.480;12.110;2024-03-08T03:14:36;97921.22;;;-3.71;74.43
82148;BME280;71718;50.480;12.110;2024-03-08T03:17:02;97919.59;;;-3.72;74.36
82148;BME280;71718;50.480;12.110;2024-03-08T03:19:28;97918.69;;;-3.71;74.45
82148;BME280;71718;50.480;12.110;2024-03-08T03:21:55;97920.63;;;-3.75;73.54
82148;BME280;71718;50.480;12.110;2024-03-08T03:24:21;97923.50;;;-3.79;73.94
82148;BME280;71718;50.480;12.110;2024-03-08T03:26:48;97920.13;;;-3.80;73.91
82148;BME280;71718;50.480;12.110;2024-03-08T03:29:15;97918.22;;;-3.76;74.11
82148;BME280;71718;50.480;12.110;2024-03-08T03:31:42;97920.28;;;-3.81;73.92
82148;BME280;71718;50.480;12.110;2024-03-08T03:34:09;97925.34;;;-3.81;73.99
82148;BME280;71718;50.480;12.110;2024-03-08T03:36:35;97923.63;;;-3.81;73.63
82148;BME280;71718;50.480;12.110;2024-03-08T03:39:01;97920.59;;;-3.86;73.72
82148;BME280;71718;50.480;12.110;2024-03-08T03:41:28;97919.16;;;-3.90;73.85
82148;BME280;71718;50.480;12.110;2024-03-08T03:43:55;97914.09;;;-3.90;73.93
82148;BME280;71718;50.480;12.110;2024-03-08T03:46:21;97903.28;;;-3.92;73.68
82148;BME280;71718;50.480;12.110;2024-03-08T03:48:48;97912.72;;;-3.94;73.84
82148;BME280;71718;50.480;12.110;2024-03-08T03:51:15;97907.97;;;-3.99;73.38
82148;BME280;71718;50.480;12.110;2024-03-08T03:53:41;97905.94;;;-4.06;73.96
82148;BME280;71718;50.480;12.110;2024-03-08T03:56:07;97900.88;;;-4.06;74.20
82148;BME280;71718;50.480;12.110;2024-03-08T03:58:34;97905.75;;;-4.03;74.30
82148;BME280;71718;50.480;12.110;2024-03-08T04:01:00;97905.66;;;-4.02;73.77
82148;BME280;71718;50.480;12.110;2024-03-08T04:03:27;97904.34;;;-4.07;73.53
82148;BME280;71718;50.480;12.110;2024-03-08T04:05:53;97907.22;;;-4.12;74.30
82148;BME280;71718;50.480;12.110;2024-03-08T04:08:19;97900.28;;;-4.10;74.06
82148;BME280;71718;50.480;12.110;2024-03-08T04:10:46;97899.38;;;-4.09;73.79
82148;BME280;71718;50.480;12.110;2024-03-08T04:13:12;97891.78;;;-4.09;73.91
82148;BME280;71718;50.480;12.110;2024-03-08T04:15:38;97896.13;;;-4.11;73.70
82148;BME280;71718;50.480;12.110;2024-03-08T04:18:05;97891.88;;;-4.10;73.40
82148;BME280;71718;50.480;12.110;2024-03-08T04:20:31;97893.25;;;-4.17;73.62
82148;BME280;71718;50.480;12.110;2024-03-08T04:22:58;97886.06;;;-4.23;72.62
82148;BME280;71718;50.480;12.110;2024-03-08T04:25:24;97880.50;;;-4.28;73.59
82148;BME280;71718;50.480;12.110;2024-03-08T04:27:50;97883.84;;;-4.28;73.91
82148;BME280;71718;50.480;12.110;2024-03-08T04:30:17;97883.94;;;-4.29;73.73
82148;BME280;71718;50.480;12.110;2024-03-08T04:32:43;97879.69;;;-4.29;73.77
82148;BME280;71718;50.480;12.110;2024-03-08T04:35:10;97871.97;;;-4.27;73.84
82148;BME280;71718;50.480;12.110;2024-03-08T04:37:36;97876.00;;;-4.25;73.99
82148;BME280;71718;50.480;12.110;2024-03-08T04:40:03;97871.03;;;-4.26;73.62
82148;BME280;71718;50.480;12.110;2024-03-08T04:42:30;97864.47;;;-4.29;73.47
82148;BME280;71718;50.480;12.110;2024-03-08T04:44:57;97873.00;;;-4.30;73.39
82148;BME280;71718;50.480;12.110;2024-03-08T04:47:24;97867.22;;;-4.32;73.14
82148;BME280;71718;50.480;12.110;2024-03-08T04:49:51;97864.56;;;-4.30;73.79
82148;BME280;71718;50.480;12.110;2024-03-08T04:52:17;97860.31;;;-4.30;73.60
82148;BME280;71718;50.480;12.110;2024-03-08T04:54:43;97857.88;;;-4.31;73.06
82148;BME280;71718;50.480;12.110;2024-03-08T04:57:10;97856.28;;;-4.32;73.79
82148;BME280;71718;50.480;12.110;2024-03-08T04:59:36;97852.56;;;-4.40;73.15
82148;BME280;71718;50.480;12.110;2024-03-08T05:02:03;97854.59;;;-4.45;73.70
82148;BME280;71718;50.480;12.110;2024-03-08T05:04:30;97853.78;;;-4.45;73.30
82148;BME280;71718;50.480;12.110;2024-03-08T05:06:56;97862.31;;;-4.46;73.70
82148;BME280;71718;50.480;12.110;2024-03-08T05:09:22;97861.28;;;-4.44;73.41
82148;BME280;71718;50.480;12.110;2024-03-08T05:11:49;97864.75;;;-4.45;73.16
82148;BME280;71718;50.480;12.110;2024-03-08T05:14:15;97865.16;;;-4.51;73.00
82148;BME280;71718;50.480;12.110;2024-03-08T05:16:44;97868.72;;;-4.53;73.54
82148;BME280;71718;50.480;12.110;2024-03-08T05:19:11;97872.03;;;-4.53;73.54
82148;BME280;71718;50.480;12.110;2024-03-08T05:21:37;97863.66;;;-4.53;73.30
82148;BME280;71718;50.480;12.110;2024-03-08T05:24:04;97866.28;;;-4.55;73.55
82148;BME280;71718;50.480;12.110;2024-03-08T05:26:30;97861.41;;;-4.58;73.30
82148;BME280;71718;50.480;12.110;2024-03-08T05:28:57;97868.91;;;-4.56;73.45
82148;BME280;71718;50.480;12.110;2024-03-08T05:31:23;97866.97;;;-4.53;73.15
82148;BME280;71718;50.480;12.110;2024-03-08T05:33:49;97866.78;;;-4.50;73.12
82148;BME280;71718;50.480;12.110;2024-03-08T05:36:16;97866.88;;;-4.51;73.05
82148;BME280;71718;50.480;12.110;2024-03-08T05:38:43;97861.72;;;-4.50;72.95
82148;BME280;71718;50.480;12.110;2024-03-08T05:41:10;97857.78;;;-4.54;72.59
82148;BME280;71718;50.480;12.110;2024-03-08T05:43:36;97861.41;;;-4.58;72.76
82148;BME280;71718;50.480;12.110;2024-03-08T05:46:03;97861.31;;;-4.56;72.53
82148;BME280;71718;50.480;12.110;2024-03-08T05:48:29;97857.06;;;-4.56;73.03
82148;BME280;71718;50.480;12.110;2024-03-08T05:50:55;97861.31;;;-4.56;72.91
82148;BME280;71718;50.480;12.110;2024-03-08T05:53:22;97861.31;;;-4.56;72.65
82148;BME280;71718;50.480;12.110;2024-03-08T05:55:48;97864.66;;;-4.56;72.82
82148;BME280;71718;50.480;12.110;2024-03-08T05:58:15;97858.06;;;-4.58;72.52
82148;BME280;71718;50.480;12.110;2024-03-08T06:00:41;97859.81;;;-4.59;72.37
82148;BME280;71718;50.480;12.110;2024-03-08T06:03:08;97858.59;;;-4.53;72.37
82148;BME280;71718;50.480;12.110;2024-03-08T06:05:34;97850.59;;;-4.60;71.90
82148;BME280;71718;50.480;12.110;2024-03-08T06:08:01;97852.22;;;-4.59;72.07
82148;BME280;71718;50.480;12.110;2024-03-08T06:10:28;97861.97;;;-4.65;72.40
82148;BME280;71718;50.480;12.110;2024-03-08T06:12:54;97870.25;;;-4.63;72.40
82148;BME280;71718;50.480;12.110;2024-03-08T06:15:20;97854.53;;;-4.56;71.33
82148;BME280;71718;50.480;12.110;2024-03-08T06:17:47;97867.19;;;-4.56;71.42
82148;BME280;71718;50.480;12.110;2024-03-08T06:20:13;97858.13;;;-4.47;72.32
82148;BME280;71718;50.480;12.110;2024-03-08T06:22:40;97850.41;;;-4.33;71.93
82148;BME280;71718;50.480;12.110;2024-03-08T06:25:13;97858.41;;;-4.15;71.41
82148;BME280;71718;50.480;12.110;2024-03-08T06:27:40;97849.53;;;-3.97;71.00
82148;BME280;71718;50.480;12.110;2024-03-08T06:30:07;97843.44;;;-3.83;70.73
82148;BME280;71718;50.480;12.110;2024-03-08T06:32:33;97853.97;;;-3.77;69.71
82148;BME280;71718;50.480;12.110;2024-03-08T06:35:00;97846.72;;;-3.70;69.37
82148;BME280;71718;50.480;12.110;2024-03-08T06:37:26;97844.41;;;-3.62;68.96
82148;BME280;71718;50.480;12.110;2024-03-08T06:39:53;97848.81;;;-3.53;68.77
82148;BME280;71718;50.480;12.110;2024-03-08T06:42:19;97856.22;;;-3.50;67.88
82148;BME280;71718;50.480;12.110;2024-03-08T06:44:45;97849.75;;;-3.43;68.45
82148;BME280;71718;50.480;12.110;2024-03-08T06:47:12;97849.06;;;-3.34;68.21
82148;BME280;71718;50.480;12.110;2024-03-08T06:49:38;97851.75;;;-3.24;67.77
82148;BME280;71718;50.480;12.110;2024-03-08T06:52:05;97854.53;;;-3.16;66.98
82148;BME280;71718;50.480;12.110;2024-03-08T06:54:31;97850.38;;;-3.06;66.76
82148;BME280;71718;50.480;12.110;2024-03-08T06:56:58;97850.81;;;-3.01;66.14
82148;BME280;71718;50.480;12.110;2024-03-08T06:59:24;97851.19;;;-2.94;66.37
82148;BME280;71718;50.480;12.110;2024-03-08T07:01:50;97851.06;;;-2.93;66.44
82148;BME280;71718;50.480;12.110;2024-03-08T07:04:17;97838.94;;;-2.89;66.06
82148;BME280;71718;50.480;12.110;2024-03-08T07:06:43;97832.31;;;-2.81;66.74
82148;BME280;71718;50.480;12.110;2024-03-08T07:09:10;97841.47;;;-2.78;66.07
82148;BME280;71718;50.480;12.110;2024-03-08T07:11:36;97847.69;;;-2.71;65.58
82148;BME280;71718;50.480;12.110;2024-03-08T07:14:02;97834.38;;;-2.64;64.98
82148;BME280;71718;50.480;12.110;2024-03-08T07:16:29;97829.28;;;-2.52;64.74
82148;BME280;71718;50.480;12.110;2024-03-08T07:18:55;97826.72;;;-2.41;64.32
82148;BME280;71718;50.480;12.110;2024-03-08T07:21:22;97818.81;;;-2.27;64.45
82148;BME280;71718;50.480;12.110;2024-03-08T07:23:48;97819.00;;;-2.19;64.42
82148;BME280;71718;50.480;12.110;2024-03-08T07:26:15;97826.59;;;-2.08;64.27
82148;BME280;71718;50.480;12.110;2024-03-08T07:28:41;97818.09;;;-1.97;63.42
82148;BME280;71718;50.480;12.110;2024-03-08T07:31:08;97811.34;;;-1.87;62.96
82148;BME280;71718;50.480;12.110;2024-03-08T07:33:34;97815.81;;;-1.80;62.77
82148;BME280;71718;50.480;12.110;2024-03-08T07:36:01;97801.16;;;-1.66;64.52
82148;BME280;71718;50.480;12.110;2024-03-08T07:38:27;97795.28;;;-1.57;63.54
82148;BME280;71718;50.480;12.110;2024-03-08T07:40:54;97795.38;;;-1.48;62.97
82148;BME280;71718;50.480;12.110;2024-03-08T07:43:20;97795.97;;;-1.35;61.88
82148;BME280;71718;50.480;12.110;2024-03-08T07:45:47;97790.50;;;-1.20;61.06
82148;BME280;71718;50.480;12.110;2024-03-08T07:48:13;97783.88;;;-1.02;60.85
82148;BME280;71718;50.480;12.110;2024-03-08T07:50:40;97779.88;;;-0.95;64.12
82148;BME280;71718;50.480;12.110;2024-03-08T07:53:07;97784.44;;;-0.89;64.70
82148;BME280;71718;50.480;12.110;2024-03-08T07:55:34;97773.22;;;-0.77;65.50
82148;BME280;71718;50.480;12.110;2024-03-08T07:58:02;97770.66;;;-0.77;65.21
82148;BME280;71718;50.480;12.110;2024-03-08T08:00:29;97777.53;;;-0.68;62.06
82148;BME280;71718;50.480;12.110;2024-03-08T08:02:55;97774.44;;;-0.62;63.89
82148;BME280;71718;50.480;12.110;2024-03-08T08:05:22;97774.16;;;-0.59;62.72
82148;BME280;71718;50.480;12.110;2024-03-08T08:07:48;97775.38;;;-0.53;60.95
82148;BME280;71718;50.480;12.110;2024-03-08T08:10:18;97776.47;;;-0.46;63.82
82148;BME280;71718;50.480;12.110;2024-03-08T08:12:45;97775.53;;;-0.45;65.65
82148;BME280;71718;50.480;12.110;2024-03-08T08:15:11;97759.44;;;-0.36;66.71
82148;BME280;71718;50.480;12.110;2024-03-08T08:17:38;97767.06;;;-0.65;67.23
82148;BME280;71718;50.480;12.110;2024-03-08T08:20:05;97759.41;;;-0.65;67.22
82148;BME280;71718;50.480;12.110;2024-03-08T08:22:31;97749.88;;;-0.72;64.38
82148;BME280;71718;50.480;12.110;2024-03-08T08:24:57;97764.38;;;-0.54;67.45
82148;BME280;71718;50.480;12.110;2024-03-08T08:27:24;97752.69;;;-0.37;66.17
82148;BME280;71718;50.480;12.110;2024-03-08T08:29:50;97751.63;;;-0.25;65.29
82148;BME280;71718;50.480;12.110;2024-03-08T08:32:17;97736.66;;;0.09;62.69
82148;BME280;71718;50.480;12.110;2024-03-08T08:34:44;97736.78;;;0.27;64.20
82148;BME280;71718;50.480;12.110;2024-03-08T08:37:10;97739.56;;;0.70;64.70
82148;BME280;71718;50.480;12.110;2024-03-08T08:39:36;97734.56;;;1.06;63.81
82148;BME280;71718;50.480;12.110;2024-03-08T08:42:03;97736.84;;;1.27;61.52
82148;BME280;71718;50.480;12.110;2024-03-08T08:44:30;97734.28;;;1.44;61.79
82148;BME280;71718;50.480;12.110;2024-03-08T08:46:57;97725.22;;;1.50;58.59
82148;BME280;71718;50.480;12.110;2024-03-08T08:49:35;97722.91;;;1.56;60.55
82148;BME280;71718;50.480;12.110;2024-03-08T08:52:01;97715.00;;;1.68;57.96
82148;BME280;71718;50.480;12.110;2024-03-08T08:54:41;97718.19;;;1.87;59.27
82148;BME280;71718;50.480;12.110;2024-03-08T08:57:07;97718.66;;;2.08;57.68
82148;BME280;71718;50.480;12.110;2024-03-08T08:59:34;97712.22;;;2.30;59.17
82148;BME280;71718;50.480;12.110;2024-03-08T09:02:03;97715.56;;;2.31;59.52
82148;BME280;71718;50.480;12.110;2024-03-08T09:04:30;97725.13;;;2.21;58.34
82148;BME280;71718;50.480;12.110;2024-03-08T09:06:57;97720.28;;;2.43;56.85
82148;BME280;71718;50.480;12.110;2024-03-08T09:09:23;97710.44;;;2.57;55.22
82148;BME280;71718;50.480;12.110;2024-03-08T09:11:50;97720.09;;;2.71;55.43
82148;BME280;71718;50.480;12.110;2024-03-08T09:14:17;97711.00;;;2.76;55.57
82148;BME280;71718;50.480;12.110;2024-03-08T09:16:43;97711.81;;;2.85;54.73
82148;BME280;71718;50.480;12.110;2024-03-08T09:19:10;97719.69;;;2.91;53.99
82148;BME280;71718;50.480;12.110;2024-03-08T09:21:36;97711.06;;;3.01;55.03
82148;BME280;71718;50.480;12.110;2024-03-08T09:24:03;97704.00;;;2.94;55.62
82148;BME280;71718;50.480;12.110;2024-03-08T09:26:30;97704.50;;;3.06;54.50
82148;BME280;71718;50.480;12.110;2024-03-08T09:28:56;97702.94;;;3.29;55.90
82148;BME280;71718;50.480;12.110;2024-03-08T09:31:23;97694.28;;;3.30;53.60
82148;BME280;71718;50.480;12.110;2024-03-08T09:33:49;97690.59;;;3.41;54.72
82148;BME280;71718;50.480;12.110;2024-03-08T09:36:16;97687.41;;;3.55;53.82
82148;BME280;71718;50.480;12.110;2024-03-08T09:38:42;97693.22;;;3.73;54.01
82148;BME280;71718;50.480;12.110;2024-03-08T09:41:09;97694.34;;;3.71;52.82
82148;BME280;71718;50.480;12.110;2024-03-08T09:43:36;97686.47;;;3.89;53.98
82148;BME280;71718;50.480;12.110;2024-03-08T09:46:03;97680.53;;;3.96;51.19
82148;BME280;71718;50.480;12.110;2024-03-08T09:48:30;97693.81;;;4.08;52.71
82148;BME280;71718;50.480;12.110;2024-03-08T09:50:56;97682.78;;;3.91;52.23
82148;BME280;71718;50.480;12.110;2024-03-08T09:53:23;97681.31;;;4.05;50.63
82148;BME280;71718;50.480;12.110;2024-03-08T09:55:49;97670.06;;;4.06;50.93
82148;BME280;71718;50.480;12.110;2024-03-08T09:58:16;97672.31;;;4.17;51.19
82148;BME280;71718;50.480;12.110;2024-03-08T10:00:43;97668.09;;;4.24;51.43
82148;BME280;71718;50.480;12.110;2024-03-08T10:03:09;97662.13;;;4.32;51.39
82148;BME280;71718;50.480;12.110;2024-03-08T10:05:41;97664.59;;;4.56;50.70
82148;BME280;71718;50.480;12.110;2024-03-08T10:08:07;97661.59;;;4.44;50.98
82148;BME280;71718;50.480;12.110;2024-03-08T10:10:34;97660.44;;;4.55;52.45
82148;BME280;71718;50.480;12.110;2024-03-08T10:13:00;97649.94;;;4.64;51.10
82148;BME280;71718;50.480;12.110;2024-03-08T10:15:27;97647.81;;;4.37;50.80
82148;BME280;71718;50.480;12.110;2024-03-08T10:17:55;97644.03;;;4.56;50.82
82148;BME280;71718;50.480;12.110;2024-03-08T10:20:22;97652.41;;;4.58;50.91
82148;BME280;71718;50.480;12.110;2024-03-08T10:22:49;97648.88;;;4.51;51.21
82148;BME280;71718;50.480;12.110;2024-03-08T10:25:32;97647.47;;;4.79;51.32
82148;BME280;71718;50.480;12.110;2024-03-08T10:27:59;97643.25;;;4.86;50.36
82148;BME280;71718;50.480;12.110;2024-03-08T10:30:25;97639.25;;;4.84;50.86
82148;BME280;71718;50.480;12.110;2024-03-08T10:32:52;97653.50;;;4.94;49.86
82148;BME280;71718;50.480;12.110;2024-03-08T10:35:18;97635.06;;;4.83;49.09
82148;BME280;71718;50.480;12.110;2024-03-08T10:37:49;97643.88;;;4.88;50.75
82148;BME280;71718;50.480;12.110;2024-03-08T10:40:17;97638.22;;;4.93;50.39
82148;BME280;71718;50.480;12.110;2024-03-08T10:42:56;97634.59;;;5.10;50.40
82148;BME280;71718;50.480;12.110;2024-03-08T10:45:38;97634.94;;;5.30;49.94
82148;BME280;71718;50.480;12.110;2024-03-08T10:48:28;97627.94;;;5.38;50.45
82148;BME280;71718;50.480;12.110;2024-03-08T10:50:57;97619.28;;;5.54;50.46
82148;BME280;71718;50.480;12.110;2024-03-08T10:53:29;97619.50;;;5.67;49.22
82148;BME280;71718;50.480;12.110;2024-03-08T10:55:57;97617.97;;;5.73;49.40
82148;BME280;71718;50.480;12.110;2024-03-08T10:58:25;97613.34;;;5.68;49.96
82148;BME280;71718;50.480;12.110;2024-03-08T11:00:56;97610.75;;;5.68;50.13
82148;BME280;71718;50.480;12.110;2024-03-08T11:06:08;97604.53;;;5.63;50.53
82148;BME280;71718;50.480;12.110;2024-03-08T11:08:37;97605.00;;;5.81;50.83
82148;BME280;71718;50.480;12.110;2024-03-08T11:11:04;97596.91;;;5.84;48.63
82148;BME280;71718;50.480;12.110;2024-03-08T11:13:35;97594.00;;;5.87;50.74
82148;BME280;71718;50.480;12.110;2024-03-08T11:16:02;97591.06;;;6.05;47.86
82148;BME280;71718;50.480;12.110;2024-03-08T11:18:33;97586.56;;;6.21;49.21
82148;BME280;71718;50.480;12.110;2024-03-08T11:21:02;97575.06;;;6.09;48.70
82148;BME280;71718;50.480;12.110;2024-03-08T11:23:29;97573.56;;;6.15;48.90
82148;BME280;71718;50.480;12.110;2024-03-08T11:25:56;97565.59;;;6.24;49.70
82148;BME280;71718;50.480;12.110;2024-03-08T11:28:24;97567.41;;;6.30;48.34
82148;BME280;71718;50.480;12.110;2024-03-08T11:33:30;97558.22;;;6.57;46.32
82148;BME280;71718;50.480;12.110;2024-03-08T11:36:03;97551.28;;;6.58;47.42
82148;BME280;71718;50.480;12.110;2024-03-08T11:38:40;97545.22;;;6.65;48.79
82148;BME280;71718;50.480;12.110;2024-03-08T11:41:06;97542.69;;;6.72;49.22
82148;BME280;71718;50.480;12.110;2024-03-08T11:43:33;97550.00;;;6.68;48.29
82148;BME280;71718;50.480;12.110;2024-03-08T11:46:12;97535.19;;;6.77;47.12
82148;BME280;71718;50.480;12.110;2024-03-08T11:48:39;97534.75;;;6.95;47.46
82148;BME280;71718;50.480;12.110;2024-03-08T11:51:06;97535.06;;;6.85;47.98
82148;BME280;71718;50.480;12.110;2024-03-08T11:53:33;97534.63;;;6.82;46.20
82148;BME280;71718;50.480;12.110;2024-03-08T11:56:12;97531.81;;;6.98;45.59
82148;BME280;71718;50.480;12.110;2024-03-08T11:58:40;97528.16;;;6.92;45.98
82148;BME280;71718;50.480;12.110;2024-03-08T12:01:08;97517.84;;;6.92;45.16
82148;BME280;71718;50.480;12.110;2024-03-08T12:03:35;97516.22;;;6.85;46.03
82148;BME280;71718;50.480;12.110;2024-03-08T12:06:02;97510.66;;;6.66;45.94
82148;BME280;71718;50.480;12.110;2024-03-08T12:08:30;97517.25;;;6.69;47.07
82148;BME280;71718;50.480;12.110;2024-03-08T12:10:57;97507.91;;;6.68;44.77
82148;BME280;71718;50.480;12.110;2024-03-08T12:13:23;97497.41;;;6.69;46.29
82148;BME280;71718;50.480;12.110;2024-03-08T12:15:50;97502.31;;;6.64;47.65
82148;BME280;71718;50.480;12.110;2024-03-08T12:18:17;97496.44;;;6.70;45.75
82148;BME280;71718;50.480;12.110;2024-03-08T12:20:43;97499.75;;;6.64;47.00
82148;BME280;71718;50.480;12.110;2024-03-08T12:23:14;97492.31;;;6.76;45.85
82148;BME280;71718;50.480;12.110;2024-03-08T12:25:41;97482.47;;;6.86;46.32
82148;BME280;71718;50.480;12.110;2024-03-08T12:28:08;97493.53;;;7.01;44.89
82148;BME280;71718;50.480;12.110;2024-03-08T12:30:35;97484.81;;;7.09;45.58
82148;BME280;71718;50.480;12.110;2024-03-08T12:33:01;97483.69;;;6.90;48.31
82148;BME280;71718;50.480;12.110;2024-03-08T12:35:29;97481.72;;;6.92;46.31
82148;BME280;71718;50.480;12.110;2024-03-08T12:37:58;97475.72;;;6.85;45.93
82148;BME280;71718;50.480;12.110;2024-03-08T12:40:29;97469.00;;;6.91;47.54
82148;BME280;71718;50.480;12.110;2024-03-08T12:42:56;97466.56;;;7.10;46.39
82148;BME280;71718;50.480;12.110;2024-03-08T12:45:25;97468.34;;;7.10;46.82
82148;BME280;71718;50.480;12.110;2024-03-08T12:47:52;97456.31;;;7.24;46.26
82148;BME280;71718;50.480;12.110;2024-03-08T12:50:22;97457.16;;;7.31;45.76
82148;BME280;71718;50.480;12.110;2024-03-08T12:52:49;97457.41;;;7.36;45.47
82148;BME280;71718;50.480;12.110;2024-03-08T12:55:19;97456.78;;;7.34;45.46
82148;BME280;71718;50.480;12.110;2024-03-08T12:57:46;97447.25;;;7.34;44.68